Time;durP1;ratioP1;P1;durP2;ratioP2;P2;SDS_P1;SDS_P2;PMS_P1;PMS_P2;Temp;Humidity;BMP_temperature;BMP_pressure;BME280_temperature;BME280_humidity;BME280_pressure;Samples;Min_cycle;Max_cycle;Signal;HPM_P1;HPM_P2
2023/07/27 00:01:27;;;;;;;4.10;2.47;;;20.80;58.90;;;;;;5036163;28;20466;-69
2023/07/27 00:03:54;;;;;;;5.27;3.50;;;20.80;59.00;;;;;;5036442;28;20494;-69
2023/07/27 00:06:21;;;;;;;3.33;2.70;;;20.80;59.20;;;;;;5039162;28;20962;-68
2023/07/27 00:08:48;;;;;;;4.40;2.70;;;20.70;59.30;;;;;;5039739;28;20451;-68
2023/07/27 00:11:15;;;;;;;7.97;3.10;;;20.70;59.50;;;;;;5037847;28;21018;-69
2023/07/27 00:13:42;;;;;;;4.60;3.07;;;20.70;59.70;;;;;;5037329;28;20454;-68
2023/07/27 00:16:09;;;;;;;4.00;2.57;;;20.60;59.70;;;;;;5034561;28;20465;-69
2023/07/27 00:18:37;;;;;;;6.03;3.10;;;20.60;59.70;;;;;;5036105;28;20455;-69
2023/07/27 00:21:03;;;;;;;2.97;2.70;;;20.60;60.10;;;;;;5035945;28;20529;-69
2023/07/27 00:23:31;;;;;;;4.43;3.10;;;20.60;60.40;;;;;;5035843;28;20541;-70
2023/07/27 00:25:58;;;;;;;3.70;3.17;;;20.50;60.30;;;;;;5035186;28;20446;-68
2023/07/27 00:28:25;;;;;;;4.67;2.67;;;20.50;60.50;;;;;;5035069;28;20528;-69
2023/07/27 00:30:55;;;;;;;3.07;2.60;;;20.50;60.60;;;;;;5035733;28;20466;-69
2023/07/27 00:33:22;;;;;;;2.87;2.57;;;20.50;60.70;;;;;;5035415;28;20982;-69
2023/07/27 00:35:56;;;;;;;3.40;2.50;;;20.50;60.90;;;;;;5035551;28;20453;-69
2023/07/27 00:38:23;;;;;;;3.40;2.90;;;20.50;60.90;;;;;;5035790;28;20438;-69
2023/07/27 00:40:50;;;;;;;4.67;2.60;;;20.40;60.90;;;;;;5035551;28;20478;-69
2023/07/27 00:43:16;;;;;;;3.60;2.87;;;20.40;61.10;;;;;;5035974;28;20454;-69
2023/07/27 00:45:43;;;;;;;3.77;2.80;;;20.40;61.20;;;;;;5035515;28;20446;-69
2023/07/27 00:48:10;;;;;;;6.50;2.80;;;20.40;61.10;;;;;;5035476;28;20443;-69
2023/07/27 00:50:37;;;;;;;3.70;2.57;;;20.40;61.50;;;;;;5035308;28;20466;-69
2023/07/27 00:53:08;;;;;;;4.73;2.80;;;20.40;61.50;;;;;;5034030;28;20447;-69
2023/07/27 00:55:35;;;;;;;3.13;2.63;;;20.40;61.80;;;;;;5035246;28;20496;-69
2023/07/27 00:58:02;;;;;;;4.97;3.27;;;20.40;61.60;;;;;;5033881;28;20887;-69
2023/07/27 01:00:32;;;;;;;3.83;2.83;;;20.40;61.80;;;;;;5034909;28;20486;-69
2023/07/27 01:03:00;;;;;;;4.00;2.80;;;20.40;61.90;;;;;;5035325;28;20450;-68
2023/07/27 01:05:27;;;;;;;2.70;2.50;;;20.40;62.00;;;;;;5034946;28;20454;-69
2023/07/27 01:07:54;;;;;;;3.80;2.37;;;20.40;62.60;;;;;;5034875;28;20512;-69
2023/07/27 01:10:26;;;;;;;3.20;2.57;;;20.40;62.30;;;;;;5034900;28;20463;-69
2023/07/27 01:12:59;;;;;;;4.07;2.80;;;20.40;62.50;;;;;;5034798;28;20430;-69
2023/07/27 01:15:30;;;;;;;4.30;2.47;;;20.30;62.60;;;;;;5034386;28;20459;-68
2023/07/27 01:18:04;;;;;;;3.07;2.13;;;20.40;62.70;;;;;;5033528;28;20443;-68
2023/07/27 01:20:37;;;;;;;6.07;3.33;;;20.40;62.90;;;;;;5034577;28;20489;-68
2023/07/27 01:23:31;;;;;;;3.57;2.57;;;20.40;62.60;;;;;;5034588;28;20446;-68
2023/07/27 01:26:20;;;;;;;4.90;2.33;;;20.30;63.00;;;;;;5033296;28;20500;-69
2023/07/27 01:29:03;;;;;;;3.67;2.73;;;20.30;63.00;;;;;;5034410;28;20520;-69
2023/07/27 01:31:41;;;;;;;5.97;2.80;;;20.30;63.30;;;;;;5034094;28;21079;-68
2023/07/27 01:34:15;;;;;;;3.40;3.03;;;20.30;63.20;;;;;;5034425;28;20435;-68
2023/07/27 01:36:44;;;;;;;6.90;3.07;;;20.30;63.40;;;;;;5033182;28;20871;-69
2023/07/27 01:39:12;;;;;;;5.27;2.77;;;20.30;64.00;;;;;;5033832;28;20451;-68
2023/07/27 01:41:42;;;;;;;5.00;2.70;;;20.30;63.80;;;;;;5031788;28;20509;-69
2023/07/27 01:44:10;;;;;;;3.00;2.70;;;20.30;63.70;;;;;;5034304;28;20489;-68
2023/07/27 01:46:39;;;;;;;4.60;2.87;;;20.30;64.10;;;;;;5034123;28;20450;-69
2023/07/27 01:49:07;;;;;;;4.30;2.90;;;20.30;64.00;;;;;;5034142;28;20473;-69
2023/07/27 01:51:35;;;;;;;7.77;3.03;;;20.30;63.80;;;;;;5032249;28;20498;-69
2023/07/27 01:54:02;;;;;;;8.13;2.90;;;20.30;64.20;;;;;;5034095;28;20457;-68
2023/07/27 01:56:30;;;;;;;7.73;2.67;;;20.30;64.10;;;;;;5033797;28;20447;-69
2023/07/27 01:58:58;;;;;;;5.77;3.00;;;20.30;64.20;;;;;;5034010;28;20446;-69
2023/07/27 02:01:26;;;;;;;5.83;2.97;;;20.30;64.00;;;;;;5035140;28;20490;-68
2023/07/27 02:03:54;;;;;;;6.83;2.77;;;20.30;64.10;;;;;;5036073;28;20947;-68
2023/07/27 02:06:21;;;;;;;6.93;2.50;;;20.20;63.80;;;;;;5036177;28;20962;-69
2023/07/27 02:08:48;;;;;;;5.30;3.20;;;20.30;64.40;;;;;;5035983;28;20450;-69
2023/07/27 02:11:17;;;;;;;4.40;2.90;;;20.20;65.00;;;;;;5035700;28;20473;-68
2023/07/27 02:13:48;;;;;;;7.37;2.57;;;20.10;64.80;;;;;;5035604;28;20450;-68
2023/07/27 02:16:24;;;;;;;4.33;2.50;;;20.00;65.10;;;;;;5034652;28;20453;-69
2023/07/27 02:18:52;;;;;;;7.90;2.93;;;20.00;68.20;;;;;;5035522;28;20434;-69
2023/07/27 02:21:22;;;;;;;9.77;2.80;;;19.90;69.10;;;;;;5037459;28;20494;-69
2023/07/27 02:23:49;;;;;;;5.30;2.60;;;19.80;69.30;;;;;;5042126;28;20446;-68
2023/07/27 02:26:16;;;;;;;8.37;2.80;;;19.60;71.00;;;;;;5043872;28;20446;-69
2023/07/27 02:28:43;;;;;;;4.53;2.67;;;19.60;73.50;;;;;;5041412;28;20457;-68
2023/07/27 02:31:13;;;;;;;7.57;3.13;;;19.50;75.00;;;;;;5038797;28;20470;-68
2023/07/27 02:33:40;;;;;;;2.90;2.50;;;19.50;76.60;;;;;;5036191;28;20447;-68
2023/07/27 02:36:07;;;;;;;4.50;3.43;;;19.50;78.10;;;;;;5037871;28;20458;-69
2023/07/27 02:38:35;;;;;;;4.47;2.80;;;19.50;78.80;;;;;;5037167;28;20454;-69
2023/07/27 02:41:02;;;;;;;10.80;3.80;;;19.40;79.80;;;;;;5036561;28;20494;-68
2023/07/27 02:43:28;;;;;;;8.80;3.17;;;19.40;80.60;;;;;;5036274;28;20457;-68
2023/07/27 02:45:59;;;;;;;6.07;3.73;;;19.40;81.30;;;;;;5036261;28;20450;-69
2023/07/27 02:48:26;;;;;;;4.77;3.17;;;19.40;82.00;;;;;;5036206;28;20450;-69
2023/07/27 02:50:53;;;;;;;4.00;2.67;;;19.40;83.20;;;;;;5036589;28;20512;-68
2023/07/27 02:53:20;;;;;;;5.10;3.17;;;19.40;83.70;;;;;;5039766;28;20453;-69
2023/07/27 02:55:57;;;;;;;6.43;3.10;;;19.40;84.10;;;;;;5040129;28;20947;-69
2023/07/27 02:58:24;;;;;;;7.80;2.73;;;19.30;84.20;;;;;;5040640;28;20434;-69
2023/07/27 03:00:55;;;;;;;4.87;2.80;;;19.30;84.80;;;;;;5043091;28;20509;-68
2023/07/27 03:03:21;;;;;;;3.87;3.03;;;19.30;85.90;;;;;;5044103;28;20461;-68
2023/07/27 03:05:48;;;;;;;4.07;2.87;;;19.30;86.10;;;;;;5043114;28;20457;-68
2023/07/27 03:08:15;;;;;;;5.37;3.03;;;19.30;86.70;;;;;;5044724;28;20460;-68
2023/07/27 03:10:42;;;;;;;3.40;2.67;;;19.30;86.90;;;;;;5044573;28;20462;-68
2023/07/27 03:13:10;;;;;;;7.20;3.13;;;19.30;87.20;;;;;;5041687;28;20473;-68
2023/07/27 03:15:40;;;;;;;5.03;3.33;;;19.30;87.70;;;;;;5041876;28;20462;-69
2023/07/27 03:18:07;;;;;;;6.50;3.87;;;19.30;88.10;;;;;;5041028;28;20462;-69
2023/07/27 03:20:39;;;;;;;7.50;3.20;;;19.30;88.60;;;;;;5040982;28;20490;-68
2023/07/27 03:23:06;;;;;;;4.10;3.20;;;19.20;88.60;;;;;;5040307;28;20496;-68
2023/07/27 03:25:34;;;;;;;3.63;2.53;;;19.20;89.20;;;;;;5040341;28;20914;-69
2023/07/27 03:28:01;;;;;;;11.80;3.23;;;19.20;89.50;;;;;;5039675;28;20481;-69
2023/07/27 03:30:29;;;;;;;5.87;3.50;;;19.10;90.00;;;;;;5039559;28;20851;-68
2023/07/27 03:32:56;;;;;;;4.20;3.77;;;19.10;90.50;;;;;;5039320;28;20448;-69
2023/07/27 03:35:23;;;;;;;4.20;3.10;;;19.00;90.30;;;;;;5039286;28;20453;-69
2023/07/27 03:37:52;;;;;;;6.73;3.30;;;19.00;90.50;;;;;;5039057;28;20450;-69
2023/07/27 03:40:19;;;;;;;6.00;2.90;;;18.90;90.90;;;;;;5038838;28;20500;-68
2023/07/27 03:42:46;;;;;;;3.80;3.17;;;18.80;91.00;;;;;;5038274;28;20986;-68
2023/07/27 03:45:15;;;;;;;3.10;2.90;;;18.80;91.30;;;;;;5038590;28;20447;-69
2023/07/27 03:47:43;;;;;;;4.47;3.03;;;18.80;91.60;;;;;;5038829;28;20462;-69
2023/07/27 03:50:11;;;;;;;3.63;3.23;;;18.70;92.00;;;;;;5038657;28;20470;-68
2023/07/27 03:52:38;;;;;;;4.03;3.20;;;18.60;92.20;;;;;;5038588;28;20866;-68
2023/07/27 03:55:05;;;;;;;5.30;3.60;;;18.60;92.40;;;;;;5040502;28;20454;-69
2023/07/27 03:57:33;;;;;;;4.47;4.03;;;18.50;92.60;;;;;;5044158;28;20520;-69
2023/07/27 04:00:00;;;;;;;4.60;3.40;;;18.50;93.00;;;;;;5048808;28;20470;-68
2023/07/27 04:02:28;;;;;;;3.17;2.90;;;18.50;93.20;;;;;;5041447;28;20450;-69
2023/07/27 04:04:56;;;;;;;3.60;3.30;;;18.30;93.20;;;;;;5043649;28;20450;-68
2023/07/27 04:07:24;;;;;;;5.00;4.20;;;18.30;93.40;;;;;;5048526;28;20504;-69
2023/07/27 04:09:51;;;;;;;6.43;4.07;;;18.30;93.70;;;;;;5048511;28;21006;-68
2023/07/27 04:12:20;;;;;;;5.30;3.47;;;18.20;94.00;;;;;;5046317;28;20454;-68
2023/07/27 04:14:46;;;;;;;6.63;3.90;;;18.20;94.40;;;;;;5045174;28;20473;-69
2023/07/27 04:17:14;;;;;;;6.10;4.00;;;18.10;94.50;;;;;;5044557;28;20461;-68
2023/07/27 04:19:41;;;;;;;3.17;2.87;;;18.10;94.60;;;;;;5043697;28;20458;-68
2023/07/27 04:22:10;;;;;;;4.50;3.47;;;18.00;94.60;;;;;;5042633;28;20490;-69
2023/07/27 04:24:38;;;;;;;5.80;3.33;;;18.10;95.00;;;;;;5042560;28;20450;-69
2023/07/27 04:27:06;;;;;;;4.87;3.63;;;18.00;95.00;;;;;;5041739;28;20454;-69
2023/07/27 04:29:32;;;;;;;5.23;3.90;;;18.00;95.10;;;;;;5041294;28;20483;-68
2023/07/27 04:32:00;;;;;;;5.60;3.70;;;18.00;95.20;;;;;;5041325;28;20443;-69
2023/07/27 04:34:30;;;;;;;5.47;3.67;;;18.00;95.20;;;;;;5041548;28;20834;-68
2023/07/27 04:36:57;;;;;;;7.73;4.30;;;18.00;95.50;;;;;;5040041;28;20799;-68
2023/07/27 04:39:25;;;;;;;5.37;4.20;;;18.00;95.60;;;;;;5041634;28;20466;-69
2023/07/27 04:41:52;;;;;;;5.17;3.43;;;18.00;95.70;;;;;;5044385;28;21080;-67
2023/07/27 04:44:19;;;;;;;4.70;4.00;;;18.00;95.90;;;;;;5044698;28;20446;-69
2023/07/27 04:46:46;;;;;;;4.47;3.30;;;18.00;95.90;;;;;;5041834;28;20447;-69
2023/07/27 04:49:15;;;;;;;3.93;3.43;;;18.00;95.90;;;;;;5041558;28;20454;-69
2023/07/27 04:51:42;;;;;;;5.63;3.07;;;18.00;96.10;;;;;;5040801;28;20466;-68
2023/07/27 04:54:08;;;;;;;4.23;3.50;;;18.00;96.10;;;;;;5040512;28;20451;-69
2023/07/27 04:56:37;;;;;;;5.77;3.23;;;17.90;95.90;;;;;;5039707;28;20459;-69
2023/07/27 04:59:04;;;;;;;4.50;3.83;;;17.90;96.10;;;;;;5038553;28;20446;-68
2023/07/27 05:01:30;;;;;;;4.07;3.70;;;17.90;96.20;;;;;;5036066;28;20487;-68
2023/07/27 05:03:57;;;;;;;5.20;3.57;;;17.80;96.30;;;;;;5036958;28;20454;-67
2023/07/27 05:06:24;;;;;;;5.47;3.93;;;17.80;96.40;;;;;;5037249;28;20457;-69
2023/07/27 05:08:50;;;;;;;3.30;2.73;;;17.80;96.70;;;;;;5037397;28;20450;-69
2023/07/27 05:11:17;;;;;;;5.93;3.30;;;17.80;96.60;;;;;;5038098;28;20508;-68
2023/07/27 05:13:46;;;;;;;5.93;3.30;;;17.80;96.80;;;;;;5037634;28;20453;-69
2023/07/27 05:16:12;;;;;;;6.43;3.20;;;17.70;96.60;;;;;;5036758;28;20458;-69
2023/07/27 05:18:39;;;;;;;5.00;2.93;;;17.60;97.10;;;;;;5039798;28;20453;-68
2023/07/27 05:21:07;;;;;;;4.73;3.10;;;17.50;97.10;;;;;;5043154;28;20540;-68
2023/07/27 05:23:33;;;;;;;4.57;3.17;;;17.50;97.40;;;;;;5041958;28;20967;-70
2023/07/27 05:26:00;;;;;;;3.70;3.40;;;17.50;97.70;;;;;;5041260;28;20477;-69
2023/07/27 05:28:27;;;;;;;4.33;3.30;;;17.50;97.60;;;;;;5038976;28;20447;-68
2023/07/27 05:30:55;;;;;;;4.80;4.23;;;17.50;97.60;;;;;;5039271;28;20882;-69
2023/07/27 05:33:24;;;;;;;4.67;3.03;;;17.50;97.70;;;;;;5037491;28;20442;-68
2023/07/27 05:35:51;;;;;;;4.03;3.20;;;17.50;97.80;;;;;;5037572;28;20549;-70
2023/07/27 05:38:18;;;;;;;5.30;3.27;;;17.50;98.30;;;;;;5037607;28;20464;-69
2023/07/27 05:40:45;;;;;;;4.60;3.10;;;17.50;98.10;;;;;;5036773;28;20493;-68
2023/07/27 05:43:12;;;;;;;3.50;3.20;;;17.50;98.40;;;;;;5036854;28;20446;-68
2023/07/27 05:45:39;;;;;;;5.50;3.47;;;17.50;98.20;;;;;;5037129;28;20475;-69
2023/07/27 05:48:07;;;;;;;5.70;3.77;;;17.50;98.40;;;;;;5037085;28;20553;-70
2023/07/27 05:50:34;;;;;;;3.90;3.10;;;17.40;98.80;;;;;;5036971;28;20471;-68
2023/07/27 05:53:01;;;;;;;5.83;4.20;;;17.30;98.90;;;;;;5036918;28;20450;-70
2023/07/27 05:55:28;;;;;;;6.07;3.83;;;17.30;99.00;;;;;;5037286;28;20453;-70
2023/07/27 05:57:55;;;;;;;4.53;4.07;;;17.30;99.30;;;;;;5037888;28;20454;-70
2023/07/27 06:00:23;;;;;;;6.50;3.97;;;17.30;99.00;;;;;;5037864;28;20506;-69
2023/07/27 06:02:50;;;;;;;4.50;4.10;;;17.30;99.20;;;;;;5037096;28;20451;-69
2023/07/27 06:05:18;;;;;;;4.50;3.40;;;17.30;99.60;;;;;;5038633;28;20450;-70
2023/07/27 06:07:45;;;;;;;3.50;3.20;;;17.30;99.70;;;;;;5042853;28;20478;-70
2023/07/27 06:10:12;;;;;;;3.47;3.10;;;17.30;99.70;;;;;;5042636;28;20473;-69
2023/07/27 06:12:39;;;;;;;5.03;3.63;;;17.30;99.70;;;;;;5040484;28;20446;-69
2023/07/27 06:15:07;;;;;;;4.77;4.30;;;17.20;99.90;;;;;;5038680;28;20477;-70
2023/07/27 06:17:33;;;;;;;3.70;3.40;;;17.30;99.90;;;;;;5038430;28;20458;-70
2023/07/27 06:20:00;;;;;;;4.63;3.80;;;17.30;99.90;;;;;;5036549;28;20995;-69
2023/07/27 06:22:29;;;;;;;3.77;3.30;;;17.30;99.90;;;;;;5038208;28;20575;-69
2023/07/27 06:24:55;;;;;;;5.53;4.00;;;17.30;99.90;;;;;;5040616;28;20473;-70
2023/07/27 06:27:22;;;;;;;4.50;3.70;;;17.30;99.90;;;;;;5041754;28;20533;-69
2023/07/27 06:29:49;;;;;;;3.50;3.20;;;17.40;99.90;;;;;;5043199;28;20565;-69
2023/07/27 06:32:16;;;;;;;4.13;3.60;;;17.30;99.90;;;;;;5041657;28;20449;-69
2023/07/27 06:34:43;;;;;;;10.07;4.30;;;17.30;99.90;;;;;;5041236;28;20446;-69
2023/07/27 06:37:09;;;;;;;3.63;3.30;;;17.30;99.90;;;;;;5041761;28;20461;-69
2023/07/27 06:39:38;;;;;;;4.87;3.67;;;17.30;99.90;;;;;;5040684;28;20446;-68
2023/07/27 06:42:05;;;;;;;4.93;3.50;;;17.30;99.90;;;;;;5041245;28;20478;-69
2023/07/27 06:44:32;;;;;;;5.30;3.53;;;17.40;99.90;;;;;;5039501;28;20446;-69
2023/07/27 06:46:58;;;;;;;5.27;3.83;;;17.40;99.90;;;;;;5038299;28;20446;-69
2023/07/27 06:49:25;;;;;;;5.20;3.67;;;17.40;99.90;;;;;;5039449;28;20948;-69
2023/07/27 06:51:52;;;;;;;5.53;3.13;;;17.50;99.90;;;;;;5039049;28;20466;-69
2023/07/27 06:54:19;;;;;;;3.30;3.00;;;17.60;99.90;;;;;;5037537;28;20822;-69
2023/07/27 06:56:48;;;;;;;4.00;3.20;;;17.60;99.90;;;;;;5038627;28;20874;-69
2023/07/27 06:59:15;;;;;;;3.70;3.40;;;17.70;99.90;;;;;;5042453;28;20482;-68
2023/07/27 07:01:41;;;;;;;4.50;2.80;;;17.70;99.90;;;;;;5047732;28;20484;-69
2023/07/27 07:04:08;;;;;;;5.50;3.63;;;17.80;99.90;;;;;;5041392;28;20458;-68
2023/07/27 07:06:36;;;;;;;2.70;2.27;;;17.90;99.90;;;;;;5022743;28;20450;-69
2023/07/27 07:09:05;;;;;;;3.83;2.83;;;18.00;99.90;;;;;;5038966;28;20939;-69
2023/07/27 07:11:32;;;;;;;2.43;2.07;;;18.00;99.90;;;;;;5037814;28;20466;-68
2023/07/27 07:14:00;;;;;;;1.70;1.60;;;18.10;99.90;;;;;;5036546;28;20461;-70
2023/07/27 07:16:27;;;;;;;1.50;1.40;;;18.20;99.90;;;;;;5035945;28;20450;-69
2023/07/27 07:18:54;;;;;;;2.17;1.97;;;18.20;99.90;;;;;;5036716;28;20447;-68
2023/07/27 07:21:21;;;;;;;2.00;1.80;;;18.30;99.90;;;;;;5036550;28;20482;-68
2023/07/27 07:23:48;;;;;;;4.57;1.90;;;18.30;99.90;;;;;;5036501;28;20950;-68
2023/07/27 07:26:14;;;;;;;2.60;2.07;;;18.40;99.90;;;;;;5035118;28;20457;-69
2023/07/27 07:28:40;;;;;;;1.53;1.43;;;18.50;99.90;;;;;;5037642;28;20513;-69
2023/07/27 07:31:08;;;;;;;3.30;1.53;;;18.50;99.90;;;;;;5036760;28;20501;-68
2023/07/27 07:33:35;;;;;;;3.30;1.80;;;18.50;99.90;;;;;;5036513;28;20204;-68
2023/07/27 07:36:02;;;;;;;3.03;1.93;;;18.50;99.90;;;;;;5036734;28;20969;-69
2023/07/27 07:38:29;;;;;;;1.50;1.40;;;18.50;99.90;;;;;;5040774;28;20457;-69
2023/07/27 07:40:56;;;;;;;2.30;1.67;;;18.60;99.90;;;;;;5044554;28;20979;-68
2023/07/27 07:43:23;;;;;;;2.57;1.67;;;18.60;99.90;;;;;;5043802;28;20446;-69
2023/07/27 07:45:49;;;;;;;1.40;1.30;;;18.60;99.90;;;;;;5041960;28;20553;-69
2023/07/27 07:48:17;;;;;;;3.07;1.30;;;18.60;99.90;;;;;;5041504;28;20446;-69
2023/07/27 07:50:44;;;;;;;1.60;1.50;;;18.60;99.90;;;;;;5040889;28;20470;-70
2023/07/27 07:53:11;;;;;;;1.60;1.47;;;18.70;99.90;;;;;;5040462;28;20442;-69
2023/07/27 07:55:38;;;;;;;3.70;2.07;;;18.60;99.90;;;;;;5039573;28;20454;-69
2023/07/27 07:58:05;;;;;;;1.53;1.40;;;18.70;99.90;;;;;;5038934;28;20446;-69
2023/07/27 08:00:32;;;;;;;2.50;1.20;;;18.70;99.90;;;;;;5038075;28;20545;-68
2023/07/27 08:02:59;;;;;;;2.40;1.67;;;18.80;99.90;;;;;;5038617;28;21064;-67
2023/07/27 08:05:27;;;;;;;2.33;1.23;;;18.80;99.90;;;;;;5038298;28;20454;-69
2023/07/27 08:07:53;;;;;;;2.87;1.20;;;18.90;99.90;;;;;;5039856;28;20460;-69
2023/07/27 08:10:20;;;;;;;1.63;1.13;;;18.90;99.90;;;;;;5039753;28;20470;-70
2023/07/27 08:12:49;;;;;;;1.90;1.60;;;19.00;99.90;;;;;;5038342;28;20912;-69
2023/07/27 08:15:17;;;;;;;1.47;1.37;;;19.10;99.90;;;;;;5039309;28;20486;-70
2023/07/27 08:17:44;;;;;;;1.53;1.10;;;19.10;99.90;;;;;;5041528;28;20970;-70
2023/07/27 08:20:12;;;;;;;2.03;1.23;;;19.20;99.90;;;;;;5043413;28;20501;-70
2023/07/27 08:22:40;;;;;;;1.23;1.13;;;19.20;99.90;;;;;;5043085;28;20482;-67
2023/07/27 08:25:07;;;;;;;1.57;1.47;;;19.30;99.90;;;;;;5043986;28;20496;-68
2023/07/27 08:27:35;;;;;;;1.43;1.33;;;19.30;99.90;;;;;;5043881;28;20450;-68
2023/07/27 08:30:02;;;;;;;2.23;1.60;;;19.20;99.90;;;;;;5043645;28;20501;-67
2023/07/27 08:32:29;;;;;;;1.70;1.33;;;19.20;99.90;;;;;;5042496;28;20453;-68
2023/07/27 08:34:57;;;;;;;4.70;1.53;;;19.30;99.90;;;;;;5041896;28;20465;-68
2023/07/27 08:37:24;;;;;;;2.40;1.53;;;19.30;99.90;;;;;;5041814;28;20442;-68
2023/07/27 08:39:52;;;;;;;2.17;1.60;;;19.40;99.90;;;;;;5041034;28;20530;-68
2023/07/27 08:42:20;;;;;;;1.67;1.57;;;19.40;99.90;;;;;;5041115;28;21021;-68
2023/07/27 08:44:46;;;;;;;1.90;1.80;;;19.40;99.90;;;;;;5040882;28;20447;-67
2023/07/27 08:47:14;;;;;;;2.17;1.80;;;19.40;99.90;;;;;;5040685;28;20455;-68
2023/07/27 08:49:41;;;;;;;2.80;2.37;;;19.40;99.90;;;;;;5039652;28;20454;-68
2023/07/27 08:52:08;;;;;;;2.03;1.50;;;19.40;99.90;;;;;;5041409;28;20453;-69
2023/07/27 08:54:35;;;;;;;2.83;2.00;;;19.40;99.90;;;;;;5040834;28;20442;-69
2023/07/27 08:57:04;;;;;;;2.10;1.90;;;19.30;99.90;;;;;;5040361;28;20446;-68
2023/07/27 08:59:31;;;;;;;4.10;2.53;;;19.30;99.90;;;;;;5038562;28;20478;-67
2023/07/27 09:01:58;;;;;;;1.60;1.50;;;19.30;99.90;;;;;;5038907;28;20482;-68
2023/07/27 09:04:25;;;;;;;1.63;1.53;;;19.20;99.90;;;;;;5042966;28;20794;-68
2023/07/27 09:06:53;;;;;;;1.97;1.77;;;19.20;99.90;;;;;;5043137;28;20446;-69
2023/07/27 09:09:23;;;;;;;2.53;2.33;;;19.20;99.90;;;;;;5042781;28;20453;-69
2023/07/27 09:11:50;;;;;;;3.90;1.80;;;19.20;99.90;;;;;;5041965;28;20466;-69
2023/07/27 09:14:19;;;;;;;2.77;1.87;;;19.20;99.90;;;;;;5041334;28;20450;-70
2023/07/27 09:16:46;;;;;;;2.70;2.50;;;19.20;99.90;;;;;;5042762;28;20437;-69
2023/07/27 09:19:14;;;;;;;3.40;2.13;;;19.20;99.90;;;;;;5052550;28;20453;-69
2023/07/27 09:21:44;;;;;;;3.40;1.83;;;19.30;99.90;;;;;;5044626;28;20474;-70
2023/07/27 09:24:11;;;;;;;3.63;1.63;;;19.40;99.90;;;;;;5043316;28;20496;-69
2023/07/27 09:26:46;;;;;;;1.87;1.67;;;19.40;99.90;;;;;;5041103;28;20501;-70
2023/07/27 09:29:13;;;;;;;2.13;1.33;;;19.50;99.90;;;;;;5039333;28;20485;-69
2023/07/27 09:31:50;;;;;;;1.70;1.60;;;19.50;99.90;;;;;;5039906;28;20477;-69
2023/07/27 09:34:18;;;;;;;1.97;1.80;;;19.50;99.90;;;;;;5038871;28;20442;-69
2023/07/27 09:36:45;;;;;;;2.30;2.03;;;19.50;99.90;;;;;;5038028;28;20447;-70
2023/07/27 09:39:13;;;;;;;2.80;1.93;;;19.50;99.90;;;;;;5037947;28;20451;-69
2023/07/27 09:41:45;;;;;;;2.67;2.10;;;19.50;99.90;;;;;;5037713;28;20481;-69
2023/07/27 09:44:13;;;;;;;2.73;2.53;;;19.50;99.90;;;;;;5037628;28;20427;-69
2023/07/27 09:46:40;;;;;;;3.33;3.03;;;19.60;99.90;;;;;;5036070;28;20461;-70
2023/07/27 09:49:09;;;;;;;3.23;2.57;;;19.70;99.90;;;;;;5036511;28;20512;-70
2023/07/27 09:51:37;;;;;;;2.40;2.20;;;19.80;99.90;;;;;;5034767;28;20466;-69
2023/07/27 09:54:06;;;;;;;3.07;2.47;;;19.70;99.90;;;;;;5037040;28;20982;-70
2023/07/27 09:56:35;;;;;;;4.27;2.70;;;19.80;99.90;;;;;;5041182;28;20832;-70
2023/07/27 09:59:05;;;;;;;2.90;1.87;;;19.90;99.90;;;;;;5039476;28;20474;-69
2023/07/27 10:01:32;;;;;;;2.73;2.20;;;19.90;99.90;;;;;;5037966;28;20481;-69
2023/07/27 10:04:00;;;;;;;2.77;2.57;;;20.00;99.90;;;;;;5037637;28;20493;-69
2023/07/27 10:06:29;;;;;;;2.60;2.40;;;20.10;99.90;;;;;;5036833;28;20455;-70
2023/07/27 10:08:57;;;;;;;2.10;1.83;;;20.20;99.90;;;;;;5036310;28;20478;-70
2023/07/27 10:11:31;;;;;;;2.40;1.90;;;20.10;99.90;;;;;;5036436;28;20481;-69
2023/07/27 10:14:16;;;;;;;2.03;1.93;;;20.20;99.90;;;;;;5035514;28;20493;-70
2023/07/27 10:16:57;;;;;;;2.33;2.17;;;20.20;99.90;;;;;;5037267;28;20431;-69
2023/07/27 10:19:24;;;;;;;6.03;2.27;;;20.30;99.90;;;;;;5037501;28;20461;-70
2023/07/27 10:21:52;;;;;;;3.67;1.90;;;20.40;99.90;;;;;;5035734;28;20467;-69
2023/07/27 10:24:23;;;;;;;3.30;2.10;;;20.40;99.90;;;;;;5034228;28;20446;-70
2023/07/27 10:26:51;;;;;;;2.00;1.80;;;20.40;99.90;;;;;;5035021;28;20431;-70
2023/07/27 10:29:20;;;;;;;2.53;1.87;;;20.30;99.90;;;;;;5037674;28;20450;-70
2023/07/27 10:32:00;;;;;;;3.70;1.80;;;20.30;99.90;;;;;;5037357;28;20474;-69
2023/07/27 10:34:28;;;;;;;2.83;2.03;;;20.40;99.90;;;;;;5038523;28;20439;-69
2023/07/27 10:37:00;;;;;;;3.27;2.07;;;20.50;99.90;;;;;;5038087;28;20450;-70
2023/07/27 10:39:30;;;;;;;1.70;1.60;;;20.60;99.90;;;;;;5038073;28;20939;-70
2023/07/27 10:42:02;;;;;;;2.10;1.90;;;20.80;99.90;;;;;;5038140;28;20451;-70
2023/07/27 10:44:29;;;;;;;3.10;1.77;;;20.70;99.90;;;;;;5038090;28;20463;-69
2023/07/27 10:46:58;;;;;;;2.20;2.10;;;20.60;99.90;;;;;;5036981;28;20450;-70
2023/07/27 10:49:25;;;;;;;2.33;2.13;;;20.50;99.90;;;;;;5036470;28;20516;-70
2023/07/27 10:51:53;;;;;;;4.33;2.10;;;20.30;99.90;;;;;;5035828;28;20477;-69
2023/07/27 10:54:21;;;;;;;2.20;2.00;;;20.40;99.90;;;;;;5034810;28;20497;-70
2023/07/27 10:56:49;;;;;;;3.63;2.50;;;20.30;99.90;;;;;;5035839;28;20901;-70
2023/07/27 10:59:16;;;;;;;3.10;2.80;;;20.30;99.90;;;;;;5035779;28;20450;-69
2023/07/27 11:01:46;;;;;;;2.40;2.17;;;20.30;99.90;;;;;;5036612;28;20463;-69
2023/07/27 11:04:14;;;;;;;2.20;2.00;;;20.60;99.90;;;;;;5037661;28;20474;-69
2023/07/27 11:06:42;;;;;;;3.83;2.50;;;20.80;99.90;;;;;;5037411;28;20454;-70
2023/07/27 11:09:16;;;;;;;2.30;2.20;;;21.10;99.90;;;;;;5037562;28;20446;-70
2023/07/27 11:11:45;;;;;;;2.27;1.70;;;21.30;99.90;;;;;;5037385;28;20466;-69
2023/07/27 11:14:12;;;;;;;2.40;1.60;;;21.70;99.90;;;;;;5040512;28;20446;-70
2023/07/27 11:16:41;;;;;;;2.03;1.43;;;21.90;99.90;;;;;;5042605;28;20434;-69
2023/07/27 11:19:11;;;;;;;1.90;1.80;;;22.20;99.70;;;;;;5041028;28;20877;-69
2023/07/27 11:21:43;;;;;;;4.30;1.73;;;22.60;98.80;;;;;;5040532;28;20466;-69
2023/07/27 11:24:11;;;;;;;1.83;1.50;;;22.70;97.00;;;;;;5040411;28;20480;-70
2023/07/27 11:26:40;;;;;;;2.07;1.87;;;22.60;97.60;;;;;;5041088;28;20502;-69
2023/07/27 11:29:09;;;;;;;1.70;1.60;;;22.20;96.80;;;;;;5039834;28;20877;-70
2023/07/27 11:31:36;;;;;;;2.10;2.00;;;21.80;97.70;;;;;;5041318;28;20477;-69
2023/07/27 11:34:04;;;;;;;2.47;1.70;;;21.60;98.40;;;;;;5046394;28;20438;-69
2023/07/27 11:36:32;;;;;;;3.23;2.13;;;21.40;99.00;;;;;;5055535;28;20446;-69
2023/07/27 11:39:00;;;;;;;1.80;1.70;;;21.30;99.30;;;;;;5046664;28;20446;-70
2023/07/27 11:41:29;;;;;;;2.20;2.00;;;21.40;99.70;;;;;;5043077;28;20466;-69
2023/07/27 11:43:57;;;;;;;1.90;1.53;;;21.40;99.20;;;;;;5041892;28;20546;-70
2023/07/27 11:46:26;;;;;;;2.30;1.87;;;21.50;98.80;;;;;;5039504;28;20446;-70
2023/07/27 11:48:56;;;;;;;3.40;1.50;;;21.50;98.60;;;;;;5038937;28;20487;-69
2023/07/27 11:51:24;;;;;;;2.87;1.60;;;21.40;98.80;;;;;;5037912;28;21021;-69
2023/07/27 11:53:51;;;;;;;4.50;1.67;;;21.50;98.90;;;;;;5038843;28;20446;-69
2023/07/27 11:56:18;;;;;;;1.90;1.70;;;21.50;99.40;;;;;;5038898;28;20458;-68
2023/07/27 11:58:48;;;;;;;2.40;1.50;;;21.50;99.30;;;;;;5040749;28;20458;-69
2023/07/27 12:01:17;;;;;;;1.83;1.73;;;21.60;99.40;;;;;;5042410;28;20474;-68
2023/07/27 12:03:45;;;;;;;3.03;1.30;;;21.40;99.00;;;;;;5042186;28;20511;-68
2023/07/27 12:06:13;;;;;;;2.10;1.47;;;21.30;98.80;;;;;;5041467;28;20454;-69
2023/07/27 12:08:41;;;;;;;1.20;1.10;;;21.20;99.40;;;;;;5039841;28;20944;-69
2023/07/27 12:11:11;;;;;;;1.27;1.20;;;21.20;99.20;;;;;;5025734;28;20490;-69
2023/07/27 12:13:46;;;;;;;1.77;1.50;;;21.10;99.50;;;;;;5046218;28;20454;-68
2023/07/27 12:16:15;;;;;;;1.23;1.00;;;21.00;99.90;;;;;;5042334;28;20536;-69
2023/07/27 12:18:49;;;;;;;1.33;1.23;;;20.90;99.90;;;;;;5040964;28;20502;-70
2023/07/27 12:21:15;;;;;;;1.10;0.70;;;20.90;99.90;;;;;;5039787;28;20466;-68
2023/07/27 12:23:42;;;;;;;1.00;1.00;;;20.80;99.90;;;;;;5039411;28;20478;-69
2023/07/27 12:26:13;;;;;;;1.20;1.10;;;20.70;99.90;;;;;;5039887;28;20450;-70
2023/07/27 12:28:39;;;;;;;0.83;0.83;;;20.50;99.90;;;;;;5038819;28;20508;-70
2023/07/27 12:31:08;;;;;;;1.20;1.00;;;20.50;99.90;;;;;;5038779;28;20473;-69
2023/07/27 12:33:34;;;;;;;0.97;0.97;;;20.40;99.90;;;;;;5040442;28;20817;-68
2023/07/27 12:36:05;;;;;;;4.37;0.90;;;20.30;99.90;;;;;;5043901;28;20455;-69
2023/07/27 12:38:32;;;;;;;1.37;1.10;;;20.30;99.90;;;;;;5046931;28;20431;-68
2023/07/27 12:40:59;;;;;;;1.50;0.70;;;20.30;99.90;;;;;;5046996;28;20466;-68
2023/07/27 12:43:25;;;;;;;0.67;0.60;;;20.30;99.90;;;;;;5046238;28;20546;-69
2023/07/27 12:45:52;;;;;;;1.80;0.63;;;20.20;99.90;;;;;;5046086;28;20449;-68
2023/07/27 12:48:19;;;;;;;1.53;1.17;;;20.20;99.90;;;;;;5045054;28;20454;-70
2023/07/27 12:50:47;;;;;;;1.23;0.80;;;20.30;99.90;;;;;;5044535;28;20473;-69